createdAt,value
2023-05-14T00:03:24.300Z,12.057288
2023-05-14T00:08:26.389Z,11.859742
2023-05-14T00:13:28.397Z,12.006538
2023-05-14T00:18:30.013Z,12.35784
2023-05-14T00:23:31.614Z,12.146616
2023-05-14T00:28:33.195Z,12.241494
2023-05-14T00:33:34.872Z,11.737494
2023-05-14T00:38:36.478Z,12.213256
2023-05-14T00:43:37.873Z,12.45421
2023-05-14T00:48:39.458Z,12.832162
2023-05-14T00:53:41.230Z,13.202448
2023-05-14T00:58:42.882Z,13.193614
2023-05-14T01:03:44.285Z,12.775238
2023-05-14T01:08:45.982Z,11.769994
2023-05-14T01:13:47.570Z,11.477056
2023-05-14T01:18:49.374Z,11.716694
2023-05-14T01:23:51.019Z,12.37814
2023-05-14T01:28:52.694Z,12.176456
2023-05-14T01:33:54.266Z,12.034452
2023-05-14T01:38:55.851Z,12.06976
2023-05-14T01:43:57.342Z,12.389172
2023-05-14T01:48:58.671Z,12.576472
2023-05-14T01:53:59.997Z,12.363742
2023-05-14T01:59:01.681Z,12.450248
2023-05-14T02:04:03.209Z,12.659436
2023-05-14T02:09:05.034Z,11.016478
2023-05-14T02:14:06.329Z,11.69893
2023-05-14T02:19:07.706Z,12.102474
2023-05-14T02:24:09.090Z,12.450682
2023-05-14T02:29:10.823Z,12.631632
2023-05-14T02:34:12.414Z,12.259324
2023-05-14T02:39:14.075Z,12.110426
2023-05-14T02:44:15.797Z,12.497022
2023-05-14T02:49:17.640Z,12.064086
2023-05-14T02:54:19.245Z,12.283858
2023-05-14T02:59:21.017Z,12.30135
2023-05-14T03:04:23.173Z,12.28679
2023-05-14T03:09:25.334Z,11.954458
2023-05-14T03:14:27.092Z,12.009794
2023-05-14T03:19:28.549Z,11.280554
2023-05-14T03:24:30.207Z,11.977418
2023-05-14T03:29:31.882Z,9.908594
2023-05-14T03:34:33.654Z,11.110312
2023-05-14T03:39:35.334Z,11.026356
2023-05-14T03:44:37.093Z,11.831328
2023-05-14T03:49:38.649Z,11.874588
2023-05-14T03:54:40.214Z,11.326188
2023-05-14T03:59:41.933Z,11.957552
2023-05-14T04:04:43.670Z,11.888266
2023-05-14T04:09:45.997Z,12.213962
2023-05-14T04:14:47.752Z,11.62469
2023-05-14T04:19:49.294Z,11.850474
2023-05-14T04:24:50.884Z,12.01951
2023-05-14T04:29:52.556Z,11.477394
2023-05-14T04:34:54.172Z,11.900628
2023-05-14T04:39:55.905Z,11.879432
2023-05-14T04:44:57.233Z,11.702472
2023-05-14T04:49:58.513Z,11.350288
2023-05-14T04:54:59.767Z,11.999034
2023-05-14T05:00:01.347Z,11.681004
2023-05-14T05:05:02.588Z,11.833878
2023-05-14T05:10:03.938Z,11.749136
2023-05-14T05:15:05.317Z,12.123384
2023-05-14T05:20:06.599Z,12.416704
2023-05-14T05:25:08.052Z,11.64058
2023-05-14T05:30:09.375Z,12.125148
2023-05-14T05:35:10.773Z,12.401696
2023-05-14T05:40:12.420Z,12.615742
2023-05-14T05:45:14.137Z,12.232836
2023-05-14T05:50:15.529Z,12.273436
2023-05-14T05:55:16.957Z,12.249446
2023-05-14T06:00:18.376Z,12.491634
2023-05-14T06:05:19.809Z,12.985308
2023-05-14T06:10:21.621Z,12.939416
2023-05-14T06:15:23.481Z,13.438558
2023-05-14T06:20:25.300Z,13.862416
2023-05-14T06:25:27.126Z,13.393438
2023-05-14T06:30:28.737Z,14.266952
2023-05-14T06:35:30.357Z,13.839808
2023-05-14T06:40:31.993Z,14.489112
2023-05-14T06:45:33.627Z,15.03363
2023-05-14T06:50:35.451Z,15.267108
2023-05-14T06:55:37.195Z,15.01078
2023-05-14T07:00:38.489Z,15.271518
2023-05-14T07:05:40.051Z,15.697154
2023-05-14T07:10:41.456Z,15.792304
2023-05-14T07:15:42.771Z,15.268696
2023-05-14T07:20:44.103Z,15.720982
2023-05-14T07:25:45.747Z,15.55424
2023-05-14T07:30:47.327Z,16.009444
2023-05-14T07:35:48.897Z,15.881456
2023-05-14T07:40:50.575Z,16.021806
2023-05-14T07:45:52.287Z,15.726722
2023-05-14T07:50:53.944Z,15.988262
2023-05-14T07:55:55.513Z,15.816838
2023-05-14T08:00:57.146Z,16.131706
2023-05-14T08:05:58.389Z,16.34373
2023-05-14T08:10:59.920Z,16.554506
2023-05-14T08:16:01.368Z,16.474188
2023-05-14T08:21:03.737Z,16.105218
2023-05-14T08:26:05.399Z,17.193402
2023-05-14T08:31:07.011Z,18.517302
2023-05-14T08:36:08.302Z,18.362826
2023-05-14T08:41:09.584Z,17.351066
2023-05-14T08:46:11.234Z,18.83483
2023-05-14T08:51:12.662Z,18.965288
2023-05-14T08:56:14.011Z,19.870636
2023-05-14T09:01:15.451Z,19.56741
2023-05-14T09:06:16.819Z,18.737468
2023-05-14T09:11:18.510Z,18.367168
2023-05-14T09:16:19.965Z,19.436586
2023-05-14T09:21:21.260Z,19.192076
2023-05-14T09:26:22.571Z,19.073342
2023-05-14T09:31:23.831Z,18.90702
2023-05-14T09:36:25.128Z,19.687718
2023-05-14T09:41:26.385Z,19.730788
2023-05-14T09:46:27.719Z,20.502856
2023-05-14T09:51:29.198Z,21.168444
2023-05-14T09:56:30.877Z,20.953244
2023-05-14T10:01:32.625Z,21.819146
2023-05-14T10:06:34.228Z,21.873248
2023-05-14T10:11:36.285Z,21.882706
2023-05-14T10:16:38.136Z,20.690496
2023-05-14T10:21:39.506Z,20.5724
2023-05-14T10:26:41.112Z,21.59499
2023-05-14T10:31:42.957Z,21.8885
2023-05-14T10:36:44.303Z,21.579358
2023-05-14T10:41:45.606Z,21.695378
2023-05-14T10:46:47.321Z,20.743404
2023-05-14T10:51:49.021Z,21.014836
2023-05-14T10:56:50.618Z,21.542978
2023-05-14T11:01:52.432Z,21.214526
2023-05-14T11:06:53.803Z,21.441396
2023-05-14T11:11:55.964Z,21.259102
2023-05-14T11:16:57.757Z,22.16456
2023-05-14T11:21:59.093Z,22.488276
2023-05-14T11:27:00.470Z,21.616864
2023-05-14T11:32:01.899Z,21.96221
2023-05-14T11:37:03.344Z,21.668442
2023-05-14T11:42:04.777Z,22.089018
2023-05-14T11:47:06.153Z,22.036938
2023-05-14T11:52:07.749Z,21.493286
2023-05-14T11:57:09.055Z,20.059538
2023-05-14T12:02:10.542Z,20.312624
2023-05-14T12:07:11.848Z,20.514322
2023-05-14T12:12:13.427Z,20.491824
2023-05-14T12:17:14.944Z,20.318174
2023-05-14T12:22:16.240Z,20.543972
2023-05-14T12:27:17.624Z,19.953166
2023-05-14T12:32:19.067Z,19.489358
2023-05-14T12:37:20.349Z,20.47417
2023-05-14T12:42:21.904Z,20.486966
2023-05-14T12:47:23.535Z,20.801848
2023-05-14T12:52:36.780Z,19.525114
2023-05-14T12:57:40.854Z,20.523658
2023-05-14T13:02:43.891Z,20.02176
2023-05-14T13:07:45.838Z,20.40008
2023-05-14T13:12:47.588Z,19.988922
2023-05-14T13:17:49.352Z,19.935132
2023-05-14T13:22:50.955Z,19.924806
2023-05-14T13:27:52.444Z,19.752418
2023-05-14T13:32:54.708Z,20.047366
2023-05-14T13:37:56.762Z,19.828584
2023-05-14T13:42:59.003Z,19.000772
2023-05-14T13:48:01.065Z,19.264714
2023-05-14T13:53:02.614Z,18.902692
2023-05-14T13:58:04.316Z,18.450038
2023-05-14T14:03:05.663Z,18.872784
2023-05-14T14:08:21.973Z,18.911444
2023-05-14T14:13:25.193Z,18.663392
2023-05-14T14:18:27.080Z,18.67285
2023-05-14T14:23:28.788Z,19.08835
2023-05-14T14:28:30.685Z,18.48369
2023-05-14T14:33:32.334Z,18.24948
2023-05-14T14:38:33.950Z,17.979106
2023-05-14T14:43:35.679Z,17.642092
2023-05-14T14:48:37.505Z,17.426798
2023-05-14T14:53:39.441Z,17.237896
2023-05-14T14:58:41.079Z,17.28159
2023-05-14T15:03:42.803Z,17.130656
2023-05-14T15:08:44.439Z,16.931862
2023-05-14T15:13:45.835Z,16.246002
2023-05-14T15:18:47.597Z,16.471718
2023-05-14T15:23:49.226Z,16.72593
2023-05-14T15:28:50.893Z,16.528466
2023-05-14T15:33:52.809Z,16.230736
2023-05-14T15:38:54.574Z,16.592202
2023-05-14T15:43:56.161Z,16.480538
2023-05-14T15:48:57.948Z,16.441526
2023-05-14T15:53:59.501Z,16.342576
2023-05-14T15:59:00.763Z,17.02826
2023-05-14T16:04:02.261Z,16.2536
2023-05-14T16:09:03.628Z,16.518492
2023-05-14T16:14:04.985Z,16.286344
2023-05-14T16:19:06.497Z,16.214494
2023-05-14T16:24:07.913Z,16.57676
2023-05-14T16:29:09.413Z,16.041848
2023-05-14T16:34:11.018Z,16.0406
2023-05-14T16:39:12.428Z,15.41963
2023-05-14T16:44:14.014Z,15.819674
2023-05-14T16:49:15.482Z,15.482308
2023-05-14T16:54:16.984Z,15.450528
2023-05-14T16:59:18.734Z,15.266484
2023-05-14T17:04:20.269Z,15.157128
2023-05-14T17:09:21.832Z,14.901056
2023-05-14T17:14:23.589Z,15.365434
2023-05-14T17:19:25.164Z,14.691612
2023-05-14T17:24:26.794Z,14.847838
2023-05-14T17:29:28.344Z,14.968498
2023-05-14T17:34:30.031Z,14.837592
2023-05-14T17:39:31.540Z,15.068072
2023-05-14T17:44:33.081Z,14.647132
2023-05-14T17:49:34.664Z,14.330322
2023-05-14T17:54:36.392Z,14.146564
2023-05-14T17:59:38.275Z,13.758624
2023-05-14T18:04:40.426Z,13.301398
2023-05-14T18:09:42.544Z,13.870178
2023-05-14T18:14:45.749Z,13.870964
2023-05-14T18:19:47.765Z,14.291662
2023-05-14T18:24:49.537Z,14.160146
2023-05-14T18:29:51.273Z,13.733274
2023-05-14T18:34:52.942Z,13.980864
2023-05-14T18:39:54.830Z,14.477022
2023-05-14T18:44:56.576Z,14.104442
2023-05-14T18:49:58.624Z,14.57711
2023-05-14T18:55:00.388Z,14.227124
2023-05-14T19:00:01.744Z,14.06482
2023-05-14T19:05:03.390Z,13.579246
2023-05-14T19:10:05.534Z,13.658248
2023-05-14T19:15:07.428Z,12.991834
2023-05-14T19:20:09.282Z,13.067228
2023-05-14T19:25:10.869Z,12.348844
2023-05-14T19:30:12.433Z,12.020774
2023-05-14T19:35:13.872Z,11.30516
2023-05-14T19:40:15.504Z,10.922974
2023-05-14T19:45:17.358Z,10.850484
2023-05-14T19:50:19.186Z,10.548182
2023-05-14T19:55:20.525Z,10.31119
2023-05-14T20:00:21.866Z,10.411484
2023-05-14T20:05:23.746Z,10.121992
2023-05-14T20:10:26.025Z,10.71042
2023-05-14T20:15:27.920Z,10.407074
2023-05-14T20:20:31.955Z,10.116686
2023-05-14T20:25:34.797Z,10.131584
2023-05-14T20:30:36.134Z,10.158344
2023-05-14T20:35:37.834Z,9.77335
2023-05-14T20:40:39.185Z,10.118016
2023-05-14T20:45:40.562Z,9.648008
2023-05-14T20:50:41.855Z,10.07846
2023-05-14T20:55:44.744Z,9.376766
2023-05-14T21:00:46.053Z,9.624628
2023-05-14T21:05:47.547Z,9.577406
2023-05-14T21:10:49.244Z,9.257164
2023-05-14T21:15:50.646Z,9.569902
2023-05-14T21:20:52.015Z,9.683316
2023-05-14T21:25:53.434Z,9.33793
2023-05-14T21:30:54.758Z,10.048172
2023-05-14T21:35:56.350Z,9.446934
2023-05-14T21:40:57.790Z,9.19286
2023-05-14T21:45:59.045Z,8.993674
2023-05-14T21:51:00.765Z,9.46178
2023-05-14T21:56:02.009Z,9.138458
2023-05-14T22:01:03.352Z,10.698844
2023-05-14T22:06:04.636Z,9.254084
2023-05-14T22:11:05.901Z,9.767772
2023-05-14T22:16:12.879Z,9.37853
2023-05-14T22:21:15.727Z,9.655078
2023-05-14T22:26:17.477Z,9.269364
2023-05-14T22:31:19.065Z,9.383784
2023-05-14T22:36:20.977Z,9.35013
2023-05-14T22:41:22.625Z,8.933966
2023-05-14T22:46:24.552Z,9.675702
2023-05-14T22:51:26.526Z,8.90969
2023-05-14T22:56:28.114Z,9.280844
2023-05-14T23:01:29.718Z,9.105472
2023-05-14T23:06:31.357Z,9.520468
2023-05-14T23:11:33.001Z,9.558746
2023-05-14T23:16:35.089Z,9.142272
2023-05-14T23:21:36.706Z,9.569902
2023-05-14T23:26:38.505Z,8.867326
2023-05-14T23:31:40.210Z,9.787028
2023-05-14T23:36:41.937Z,9.27836
2023-05-14T23:41:43.568Z,10.465828
2023-05-14T23:46:45.158Z,9.806608
2023-05-14T23:51:46.980Z,9.91903
2023-05-14T23:56:48.476Z,9.623908
